Decoded Metar for LGIR (HERAKLION in GREECE) (IATA:HER) | Meteo·Mobile Aviation Weather
aviador You're here:

LGIR Decoded Metar

HERAKLION in GREECE
Report Time2019-06-17 06:20:00
UTC Time2019-06-17 06:36:18
Flight Rules vfr VFR
Wind300° at 12 kt
W.Decomp.*RWY 30: 12.0 kt HW 0.6 kt LCW
RWY 27: 10.7 kt HW 5.4 kt RCW
Visibility9999 m
Phenomena:N/A
Clouds:Few 080 Hf
Expected CloudBase > 3,600 ft AGL from Temp-Dew spread
CeilingNone
Temp27°C (ISA +12)
Dew Point18°C (58% RH)
Heat Index27.9°C
AAT25.5°C
QNH1010 hPa
Density Alt1,916 ft
Elevation128 ft
Report Wrong Elevation
Raw Report
METAR LGIR 170620Z 30012KT 9999 FEW080 27/18 Q1010 NOSIG=

Extra information for LGIR:More info

Metar Taf Metar & Taf Last 4 Metars F.Rules Stats Wind Profile Meteogram Temp Stats Airport Information Weather charts Add Link Nearby VenuesMetar ALERT Operation Metar Decoded Social comments